sensor_id;sensor_type;location;lat;lon;timestamp;pressure;altitude;pressure_sealevel;temperature;humidity
43298;BME280;28892;55.640;37.532;2024-03-17T00:00:09;98955.44;;;1.13;59.09
43298;BME280;28892;55.640;37.532;2024-03-17T00:02:40;98955.56;;;1.33;58.31
43298;BME280;28892;55.640;37.532;2024-03-17T00:05:07;98942.00;;;1.49;58.15
43298;BME280;28892;55.640;37.532;2024-03-17T00:07:32;98946.00;;;1.53;58.05
43298;BME280;28892;55.640;37.532;2024-03-17T00:09:58;98929.22;;;1.87;57.38
43298;BME280;28892;55.640;37.532;2024-03-17T00:12:27;98933.13;;;1.61;57.70
43298;BME280;28892;55.640;37.532;2024-03-17T00:14:53;98933.22;;;1.29;58.40
43298;BME280;28892;55.640;37.532;2024-03-17T00:17:22;98938.81;;;1.76;57.69
43298;BME280;28892;55.640;37.532;2024-03-17T00:19:48;98929.38;;;1.95;56.76
43298;BME280;28892;55.640;37.532;2024-03-17T00:22:13;98931.41;;;1.81;57.50
43298;BME280;28892;55.640;37.532;2024-03-17T00:24:40;98928.88;;;1.70;57.37
43298;BME280;28892;55.640;37.532;2024-03-17T00:27:06;98937.19;;;1.23;58.52
43298;BME280;28892;55.640;37.532;2024-03-17T00:29:38;98941.13;;;0.75;60.03
43298;BME280;28892;55.640;37.532;2024-03-17T00:32:04;98938.59;;;0.85;60.48
43298;BME280;28892;55.640;37.532;2024-03-17T00:34:30;98940.69;;;0.91;59.67
43298;BME280;28892;55.640;37.532;2024-03-17T00:36:56;98935.78;;;0.97;60.07
43298;BME280;28892;55.640;37.532;2024-03-17T00:39:22;98930.50;;;1.30;59.01
43298;BME280;28892;55.640;37.532;2024-03-17T00:41:50;98927.03;;;1.51;58.57
43298;BME280;28892;55.640;37.532;2024-03-17T00:44:16;98918.03;;;1.44;58.60
43298;BME280;28892;55.640;37.532;2024-03-17T00:46:42;98920.31;;;1.99;57.08
43298;BME280;28892;55.640;37.532;2024-03-17T00:49:12;98921.59;;;2.25;56.49
43298;BME280;28892;55.640;37.532;2024-03-17T00:51:38;98915.41;;;2.55;55.68
43298;BME280;28892;55.640;37.532;2024-03-17T00:54:03;98919.00;;;2.74;54.75
43298;BME280;28892;55.640;37.532;2024-03-17T00:56:29;98921.88;;;2.71;55.04
43298;BME280;28892;55.640;37.532;2024-03-17T00:58:55;98922.28;;;2.96;54.04
43298;BME280;28892;55.640;37.532;2024-03-17T01:01:21;98920.63;;;2.95;54.08
43298;BME280;28892;55.640;37.532;2024-03-17T01:03:46;98926.56;;;2.47;55.36
43298;BME280;28892;55.640;37.532;2024-03-17T01:06:13;98926.84;;;2.44;55.08
43298;BME280;28892;55.640;37.532;2024-03-17T01:08:39;98914.97;;;2.11;56.49
43298;BME280;28892;55.640;37.532;2024-03-17T01:11:05;98918.94;;;2.05;56.43
43298;BME280;28892;55.640;37.532;2024-03-17T01:13:34;98914.84;;;2.32;56.06
43298;BME280;28892;55.640;37.532;2024-03-17T01:16:01;98907.56;;;2.55;55.34
43298;BME280;28892;55.640;37.532;2024-03-17T01:18:26;98913.91;;;2.82;54.52
43298;BME280;28892;55.640;37.532;2024-03-17T01:20:52;98921.69;;;3.12;53.30
43298;BME280;28892;55.640;37.532;2024-03-17T01:23:18;98905.56;;;3.16;53.24
43298;BME280;28892;55.640;37.532;2024-03-17T01:25:44;98910.88;;;3.34;52.69
43298;BME280;28892;55.640;37.532;2024-03-17T01:28:09;98911.38;;;2.21;55.43
43298;BME280;28892;55.640;37.532;2024-03-17T01:30:35;98909.91;;;2.39;55.45
43298;BME280;28892;55.640;37.532;2024-03-17T01:33:02;98905.91;;;2.25;55.82
43298;BME280;28892;55.640;37.532;2024-03-17T01:35:30;98898.72;;;2.36;55.86
43298;BME280;28892;55.640;37.532;2024-03-17T01:37:56;98896.66;;;2.70;54.55
43298;BME280;28892;55.640;37.532;2024-03-17T01:40:21;98894.56;;;2.93;54.04
43298;BME280;28892;55.640;37.532;2024-03-17T01:42:47;98891.81;;;2.95;54.04
43298;BME280;28892;55.640;37.532;2024-03-17T01:47:41;98892.16;;;3.19;53.46
43298;BME280;28892;55.640;37.532;2024-03-17T01:50:07;98891.34;;;3.09;53.28
43298;BME280;28892;55.640;37.532;2024-03-17T01:52:34;98895.56;;;2.53;55.16
43298;BME280;28892;55.640;37.532;2024-03-17T01:54:59;98903.59;;;1.80;56.91
43298;BME280;28892;55.640;37.532;2024-03-17T01:57:25;98881.59;;;1.93;57.01
43298;BME280;28892;55.640;37.532;2024-03-17T01:59:50;98894.75;;;1.31;58.21
43298;BME280;28892;55.640;37.532;2024-03-17T02:02:16;98895.81;;;1.59;58.06
43298;BME280;28892;55.640;37.532;2024-03-17T02:04:42;98886.44;;;1.47;58.26
43298;BME280;28892;55.640;37.532;2024-03-17T02:07:07;98890.81;;;1.15;59.38
43298;BME280;28892;55.640;37.532;2024-03-17T02:09:33;98882.88;;;1.27;58.65
43298;BME280;28892;55.640;37.532;2024-03-17T02:11:58;98880.56;;;1.33;58.93
43298;BME280;28892;55.640;37.532;2024-03-17T02:14:24;98872.59;;;1.76;57.91
43298;BME280;28892;55.640;37.532;2024-03-17T02:16:49;98879.75;;;1.02;59.14
43298;BME280;28892;55.640;37.532;2024-03-17T02:19:15;98876.56;;;1.19;59.71
43298;BME280;28892;55.640;37.532;2024-03-17T02:21:40;98873.56;;;1.34;59.02
43298;BME280;28892;55.640;37.532;2024-03-17T02:24:07;98877.66;;;1.27;59.01
43298;BME280;28892;55.640;37.532;2024-03-17T02:26:33;98867.97;;;1.38;59.09
43298;BME280;28892;55.640;37.532;2024-03-17T02:29:00;98869.19;;;1.03;59.58
43298;BME280;28892;55.640;37.532;2024-03-17T02:31:27;98865.25;;;1.19;59.42
43298;BME280;28892;55.640;37.532;2024-03-17T02:33:53;98864.44;;;0.76;60.59
43298;BME280;28892;55.640;37.532;2024-03-17T02:36:18;98863.25;;;0.80;60.47
43298;BME280;28892;55.640;37.532;2024-03-17T02:38:44;98862.16;;;1.04;59.97
43298;BME280;28892;55.640;37.532;2024-03-17T02:41:28;98865.75;;;0.81;60.34
43298;BME280;28892;55.640;37.532;2024-03-17T02:43:54;98857.00;;;0.92;60.00
43298;BME280;28892;55.640;37.532;2024-03-17T02:46:19;98856.75;;;0.95;60.22
43298;BME280;28892;55.640;37.532;2024-03-17T02:48:46;98852.16;;;1.09;60.03
43298;BME280;28892;55.640;37.532;2024-03-17T02:51:15;98859.13;;;0.99;59.95
43298;BME280;28892;55.640;37.532;2024-03-17T02:53:44;98858.22;;;0.67;60.49
43298;BME280;28892;55.640;37.532;2024-03-17T02:56:10;98853.69;;;0.69;60.99
43298;BME280;28892;55.640;37.532;2024-03-17T02:58:36;98854.97;;;0.75;60.55
43298;BME280;28892;55.640;37.532;2024-03-17T03:01:03;98854.91;;;0.86;60.46
43298;BME280;28892;55.640;37.532;2024-03-17T03:03:30;98843.44;;;0.99;59.94
43298;BME280;28892;55.640;37.532;2024-03-17T03:05:56;98847.97;;;0.75;60.58
43298;BME280;28892;55.640;37.532;2024-03-17T03:08:26;98855.44;;;0.80;60.40
43298;BME280;28892;55.640;37.532;2024-03-17T03:10:52;98851.66;;;0.94;60.32
43298;BME280;28892;55.640;37.532;2024-03-17T03:13:18;98850.66;;;0.64;60.96
43298;BME280;28892;55.640;37.532;2024-03-17T03:15:46;98851.22;;;0.67;61.16
43298;BME280;28892;55.640;37.532;2024-03-17T03:18:13;98843.97;;;0.71;60.86
43298;BME280;28892;55.640;37.532;2024-03-17T03:20:38;98847.53;;;0.91;60.44
43298;BME280;28892;55.640;37.532;2024-03-17T03:23:04;98841.16;;;0.84;60.06
43298;BME280;28892;55.640;37.532;2024-03-17T03:25:30;98834.53;;;0.59;60.92
43298;BME280;28892;55.640;37.532;2024-03-17T03:27:55;98835.16;;;0.93;60.78
43298;BME280;28892;55.640;37.532;2024-03-17T03:30:23;98846.22;;;1.07;59.79
43298;BME280;28892;55.640;37.532;2024-03-17T03:32:50;98838.91;;;1.01;60.29
43298;BME280;28892;55.640;37.532;2024-03-17T03:35:15;98834.97;;;1.06;59.76
43298;BME280;28892;55.640;37.532;2024-03-17T03:37:41;98832.50;;;0.62;60.73
43298;BME280;28892;55.640;37.532;2024-03-17T03:40:07;98839.06;;;0.35;62.04
43298;BME280;28892;55.640;37.532;2024-03-17T03:42:46;98829.75;;;0.43;61.86
43298;BME280;28892;55.640;37.532;2024-03-17T03:45:12;98842.16;;;0.29;61.92
43298;BME280;28892;55.640;37.532;2024-03-17T03:47:38;98833.84;;;0.35;61.94
43298;BME280;28892;55.640;37.532;2024-03-17T03:50:06;98831.75;;;0.72;61.61
43298;BME280;28892;55.640;37.532;2024-03-17T03:52:32;98825.97;;;0.99;60.25
43298;BME280;28892;55.640;37.532;2024-03-17T03:54:57;98832.63;;;1.44;59.27
43298;BME280;28892;55.640;37.532;2024-03-17T03:57:24;98823.72;;;1.16;59.39
43298;BME280;28892;55.640;37.532;2024-03-17T03:59:53;98823.03;;;1.55;59.04
43298;BME280;28892;55.640;37.532;2024-03-17T04:02:20;98821.84;;;1.78;58.09
43298;BME280;28892;55.640;37.532;2024-03-17T04:04:46;98813.72;;;2.11;57.17
43298;BME280;28892;55.640;37.532;2024-03-17T04:07:13;98809.31;;;2.12;57.18
43298;BME280;28892;55.640;37.532;2024-03-17T04:09:38;98814.56;;;2.12;56.55
43298;BME280;28892;55.640;37.532;2024-03-17T04:12:04;98816.59;;;2.37;56.10
43298;BME280;28892;55.640;37.532;2024-03-17T04:14:30;98811.66;;;2.44;55.96
43298;BME280;28892;55.640;37.532;2024-03-17T04:16:56;98813.72;;;2.60;55.14
43298;BME280;28892;55.640;37.532;2024-03-17T04:19:22;98814.06;;;2.85;54.74
43298;BME280;28892;55.640;37.532;2024-03-17T04:21:47;98813.75;;;2.98;54.47
43298;BME280;28892;55.640;37.532;2024-03-17T04:24:13;98819.63;;;2.62;54.92
43298;BME280;28892;55.640;37.532;2024-03-17T04:26:38;98827.47;;;1.64;57.51
43298;BME280;28892;55.640;37.532;2024-03-17T04:29:04;98830.31;;;1.10;58.74
43298;BME280;28892;55.640;37.532;2024-03-17T04:31:31;98823.94;;;1.03;59.52
43298;BME280;28892;55.640;37.532;2024-03-17T04:33:58;98814.56;;;1.31;59.51
43298;BME280;28892;55.640;37.532;2024-03-17T04:36:23;98810.06;;;1.43;59.09
43298;BME280;28892;55.640;37.532;2024-03-17T04:38:49;98809.88;;;1.86;58.51
43298;BME280;28892;55.640;37.532;2024-03-17T04:41:16;98804.34;;;1.99;57.62
43298;BME280;28892;55.640;37.532;2024-03-17T04:43:42;98807.00;;;2.08;57.10
43298;BME280;28892;55.640;37.532;2024-03-17T04:46:07;98799.56;;;2.23;56.92
43298;BME280;28892;55.640;37.532;2024-03-17T04:48:37;98808.22;;;2.34;56.41
43298;BME280;28892;55.640;37.532;2024-03-17T04:51:03;98812.41;;;1.56;58.64
43298;BME280;28892;55.640;37.532;2024-03-17T04:53:28;98812.22;;;1.89;58.62
43298;BME280;28892;55.640;37.532;2024-03-17T04:56:04;98806.19;;;2.18;57.52
43298;BME280;28892;55.640;37.532;2024-03-17T04:58:33;98814.84;;;1.38;59.24
43298;BME280;28892;55.640;37.532;2024-03-17T05:01:03;98811.72;;;1.44;59.68
43298;BME280;28892;55.640;37.532;2024-03-17T05:03:32;98814.91;;;1.67;58.87
43298;BME280;28892;55.640;37.532;2024-03-17T05:05:58;98816.19;;;1.83;59.25
43298;BME280;28892;55.640;37.532;2024-03-17T05:08:26;98806.81;;;1.80;59.12
43298;BME280;28892;55.640;37.532;2024-03-17T05:13:24;98813.03;;;1.79;58.26
43298;BME280;28892;55.640;37.532;2024-03-17T05:15:49;98812.34;;;1.87;58.23
43298;BME280;28892;55.640;37.532;2024-03-17T05:18:15;98814.03;;;1.37;59.72
43298;BME280;28892;55.640;37.532;2024-03-17T05:20:41;98820.13;;;1.58;59.40
43298;BME280;28892;55.640;37.532;2024-03-17T05:23:06;98816.19;;;1.83;58.29
43298;BME280;28892;55.640;37.532;2024-03-17T05:25:31;98816.88;;;1.24;59.70
43298;BME280;28892;55.640;37.532;2024-03-17T05:28:02;98821.31;;;1.34;60.65
43298;BME280;28892;55.640;37.532;2024-03-17T05:30:27;98815.75;;;1.78;59.30
43298;BME280;28892;55.640;37.532;2024-03-17T05:32:53;98819.94;;;2.00;58.22
43298;BME280;28892;55.640;37.532;2024-03-17T05:35:19;98812.19;;;1.69;58.79
43298;BME280;28892;55.640;37.532;2024-03-17T05:37:45;98821.97;;;1.97;58.17
43298;BME280;28892;55.640;37.532;2024-03-17T05:40:13;98827.75;;;2.59;57.38
43298;BME280;28892;55.640;37.532;2024-03-17T05:42:41;98832.75;;;2.43;56.74
43298;BME280;28892;55.640;37.532;2024-03-17T05:45:09;98831.91;;;2.32;57.17
43298;BME280;28892;55.640;37.532;2024-03-17T05:47:44;98840.44;;;2.54;57.17
43298;BME280;28892;55.640;37.532;2024-03-17T05:50:09;98839.91;;;2.21;57.04
43298;BME280;28892;55.640;37.532;2024-03-17T05:52:35;98816.84;;;2.74;56.67
43298;BME280;28892;55.640;37.532;2024-03-17T05:55:01;98816.16;;;2.62;56.70
43298;BME280;28892;55.640;37.532;2024-03-17T05:57:28;98829.78;;;3.23;55.90
43298;BME280;28892;55.640;37.532;2024-03-17T05:59:54;98829.13;;;3.49;55.19
43298;BME280;28892;55.640;37.532;2024-03-17T06:02:20;98825.63;;;3.58;54.71
43298;BME280;28892;55.640;37.532;2024-03-17T06:04:46;98818.44;;;3.78;54.40
43298;BME280;28892;55.640;37.532;2024-03-17T06:07:12;98826.72;;;3.84;53.88
43298;BME280;28892;55.640;37.532;2024-03-17T06:09:37;98816.88;;;3.68;53.92
43298;BME280;28892;55.640;37.532;2024-03-17T06:12:03;98826.03;;;3.82;54.75
43298;BME280;28892;55.640;37.532;2024-03-17T06:14:29;98826.78;;;3.46;54.72
43298;BME280;28892;55.640;37.532;2024-03-17T06:16:55;98821.59;;;3.64;54.83
43298;BME280;28892;55.640;37.532;2024-03-17T06:19:21;98813.28;;;4.05;53.93
43298;BME280;28892;55.640;37.532;2024-03-17T06:21:47;98810.22;;;4.28;53.11
43298;BME280;28892;55.640;37.532;2024-03-17T06:24:12;98814.34;;;4.30;53.35
43298;BME280;28892;55.640;37.532;2024-03-17T06:26:38;98813.88;;;4.35;53.37
43298;BME280;28892;55.640;37.532;2024-03-17T06:29:03;98807.41;;;4.47;52.87
43298;BME280;28892;55.640;37.532;2024-03-17T06:31:29;98813.03;;;4.53;52.80
43298;BME280;28892;55.640;37.532;2024-03-17T06:33:56;98807.75;;;4.26;53.87
43298;BME280;28892;55.640;37.532;2024-03-17T06:36:23;98805.19;;;4.35;53.31
43298;BME280;28892;55.640;37.532;2024-03-17T06:38:49;98804.75;;;4.21;53.85
43298;BME280;28892;55.640;37.532;2024-03-17T06:41:15;98806.16;;;4.78;53.62
43298;BME280;28892;55.640;37.532;2024-03-17T06:43:41;98806.81;;;4.80;52.87
43298;BME280;28892;55.640;37.532;2024-03-17T06:46:10;98806.00;;;4.80;53.45
43298;BME280;28892;55.640;37.532;2024-03-17T06:48:36;98801.16;;;4.67;53.71
43298;BME280;28892;55.640;37.532;2024-03-17T06:51:02;98808.31;;;4.83;53.77
43298;BME280;28892;55.640;37.532;2024-03-17T06:53:28;98807.28;;;4.75;54.09
43298;BME280;28892;55.640;37.532;2024-03-17T06:55:57;98805.75;;;4.46;54.92
43298;BME280;28892;55.640;37.532;2024-03-17T06:58:24;98804.22;;;4.36;55.32
43298;BME280;28892;55.640;37.532;2024-03-17T07:00:57;98791.00;;;4.45;55.74
43298;BME280;28892;55.640;37.532;2024-03-17T07:03:30;98794.22;;;4.66;55.24
43298;BME280;28892;55.640;37.532;2024-03-17T07:05:57;98808.63;;;4.35;55.85
43298;BME280;28892;55.640;37.532;2024-03-17T07:08:24;98793.69;;;4.80;55.61
43298;BME280;28892;55.640;37.532;2024-03-17T07:13:23;98783.28;;;5.05;54.61
43298;BME280;28892;55.640;37.532;2024-03-17T07:15:49;98789.41;;;5.14;54.87
43298;BME280;28892;55.640;37.532;2024-03-17T07:18:15;98783.00;;;5.51;54.28
43298;BME280;28892;55.640;37.532;2024-03-17T07:20:42;98790.84;;;5.43;54.89
43298;BME280;28892;55.640;37.532;2024-03-17T07:23:08;98791.91;;;5.58;54.35
43298;BME280;28892;55.640;37.532;2024-03-17T07:25:33;98787.31;;;5.77;53.77
43298;BME280;28892;55.640;37.532;2024-03-17T07:28:00;98793.09;;;5.81;53.53
43298;BME280;28892;55.640;37.532;2024-03-17T07:30:25;98786.47;;;5.68;54.32
43298;BME280;28892;55.640;37.532;2024-03-17T07:32:51;98787.78;;;5.64;54.42
43298;BME280;28892;55.640;37.532;2024-03-17T07:35:17;98784.75;;;6.10;53.39
43298;BME280;28892;55.640;37.532;2024-03-17T07:37:43;98790.34;;;6.32;52.96
43298;BME280;28892;55.640;37.532;2024-03-17T07:40:08;98782.78;;;6.29;52.87
43298;BME280;28892;55.640;37.532;2024-03-17T07:42:38;98780.38;;;5.16;54.86
43298;BME280;28892;55.640;37.532;2024-03-17T07:45:05;98777.28;;;5.21;55.69
43298;BME280;28892;55.640;37.532;2024-03-17T07:47:33;98782.97;;;4.73;56.16
43298;BME280;28892;55.640;37.532;2024-03-17T07:50:04;98790.41;;;4.60;56.84
43298;BME280;28892;55.640;37.532;2024-03-17T07:52:33;98780.63;;;4.97;56.05
43298;BME280;28892;55.640;37.532;2024-03-17T07:54:59;98785.69;;;5.25;55.28
43298;BME280;28892;55.640;37.532;2024-03-17T07:57:28;98787.38;;;5.34;55.12
43298;BME280;28892;55.640;37.532;2024-03-17T07:59:56;98789.63;;;4.86;56.29
43298;BME280;28892;55.640;37.532;2024-03-17T08:02:47;98787.00;;;5.21;55.51
43298;BME280;28892;55.640;37.532;2024-03-17T08:05:15;98785.72;;;5.41;54.89
43298;BME280;28892;55.640;37.532;2024-03-17T08:07:44;98784.56;;;5.87;53.13
43298;BME280;28892;55.640;37.532;2024-03-17T08:10:10;98781.47;;;6.25;52.87
43298;BME280;28892;55.640;37.532;2024-03-17T08:15:40;98773.69;;;6.73;50.60
43298;BME280;28892;55.640;37.532;2024-03-17T08:18:06;98778.47;;;6.78;50.84
43298;BME280;28892;55.640;37.532;2024-03-17T08:20:39;98775.88;;;6.03;52.56
43298;BME280;28892;55.640;37.532;2024-03-17T08:23:18;98770.22;;;5.73;53.21
43298;BME280;28892;55.640;37.532;2024-03-17T08:25:51;98773.06;;;6.38;51.99
43298;BME280;28892;55.640;37.532;2024-03-17T08:28:17;98765.44;;;6.84;50.36
43298;BME280;28892;55.640;37.532;2024-03-17T08:30:42;98760.84;;;6.70;50.83
43298;BME280;28892;55.640;37.532;2024-03-17T08:33:09;98775.53;;;6.48;51.39
43298;BME280;28892;55.640;37.532;2024-03-17T08:35:36;98770.34;;;5.63;53.29
43298;BME280;28892;55.640;37.532;2024-03-17T08:38:02;98769.22;;;5.74;53.28
43298;BME280;28892;55.640;37.532;2024-03-17T08:40:28;98770.28;;;6.31;52.46
43298;BME280;28892;55.640;37.532;2024-03-17T08:42:54;98765.09;;;5.55;53.39
43298;BME280;28892;55.640;37.532;2024-03-17T08:45:19;98769.69;;;5.53;53.29
43298;BME280;28892;55.640;37.532;2024-03-17T08:47:45;98761.81;;;5.69;53.05
43298;BME280;28892;55.640;37.532;2024-03-17T08:50:11;98769.78;;;5.35;53.98
43298;BME280;28892;55.640;37.532;2024-03-17T08:52:38;98761.03;;;5.94;53.22
43298;BME280;28892;55.640;37.532;2024-03-17T08:55:10;98761.88;;;6.11;52.77
43298;BME280;28892;55.640;37.532;2024-03-17T08:57:39;98762.69;;;6.45;51.65
43298;BME280;28892;55.640;37.532;2024-03-17T09:00:05;98762.28;;;6.89;50.92
43298;BME280;28892;55.640;37.532;2024-03-17T09:02:32;98769.94;;;6.59;51.23
43298;BME280;28892;55.640;37.532;2024-03-17T09:04:57;98763.22;;;6.32;50.90
43298;BME280;28892;55.640;37.532;2024-03-17T09:07:23;98766.31;;;6.52;51.56
43298;BME280;28892;55.640;37.532;2024-03-17T09:09:49;98760.41;;;7.06;49.83
43298;BME280;28892;55.640;37.532;2024-03-17T09:12:15;98769.25;;;7.22;49.76
43298;BME280;28892;55.640;37.532;2024-03-17T09:14:41;98760.81;;;6.87;49.71
43298;BME280;28892;55.640;37.532;2024-03-17T09:17:07;98760.38;;;6.50;51.36
43298;BME280;28892;55.640;37.532;2024-03-17T09:19:33;98759.19;;;6.77;50.72
43298;BME280;28892;55.640;37.532;2024-03-17T09:21:59;98752.19;;;6.93;50.36
43298;BME280;28892;55.640;37.532;2024-03-17T09:24:27;98755.56;;;7.18;49.66
43298;BME280;28892;55.640;37.532;2024-03-17T09:29:56;98758.66;;;6.90;49.72
43298;BME280;28892;55.640;37.532;2024-03-17T09:32:25;98762.22;;;6.33;50.69
43298;BME280;28892;55.640;37.532;2024-03-17T09:34:53;98757.78;;;6.17;51.49
43298;BME280;28892;55.640;37.532;2024-03-17T09:37:53;98762.53;;;6.21;51.46
43298;BME280;28892;55.640;37.532;2024-03-17T09:40:19;98765.19;;;6.29;51.12
43298;BME280;28892;55.640;37.532;2024-03-17T09:43:05;98768.13;;;6.51;51.02
43298;BME280;28892;55.640;37.532;2024-03-17T09:45:48;98770.78;;;6.35;50.92
43298;BME280;28892;55.640;37.532;2024-03-17T09:48:45;98765.00;;;6.06;52.62
43298;BME280;28892;55.640;37.532;2024-03-17T09:51:21;98762.22;;;6.16;52.05
43298;BME280;28892;55.640;37.532;2024-03-17T09:53:50;98757.94;;;6.15;52.59
43298;BME280;28892;55.640;37.532;2024-03-17T09:56:19;98755.75;;;5.94;52.62
43298;BME280;28892;55.640;37.532;2024-03-17T10:05:01;98742.94;;;6.49;52.02
43298;BME280;28892;55.640;37.532;2024-03-17T10:10:22;98746.38;;;6.49;52.63
43298;BME280;28892;55.640;37.532;2024-03-17T10:12:51;98732.94;;;6.92;51.59
43298;BME280;28892;55.640;37.532;2024-03-17T10:15:26;98736.09;;;6.88;51.34
43298;BME280;28892;55.640;37.532;2024-03-17T10:17:57;98738.06;;;6.85;51.80
43298;BME280;28892;55.640;37.532;2024-03-17T10:23:43;98737.22;;;6.20;53.33
43298;BME280;28892;55.640;37.532;2024-03-17T10:26:19;98732.25;;;6.42;52.57
43298;BME280;28892;55.640;37.532;2024-03-17T10:28:59;98733.28;;;6.89;51.90
43298;BME280;28892;55.640;37.532;2024-03-17T10:31:25;98732.94;;;6.92;51.88
43298;BME280;28892;55.640;37.532;2024-03-17T10:34:01;98724.69;;;6.95;51.57
43298;BME280;28892;55.640;37.532;2024-03-17T10:36:36;98717.28;;;6.91;51.60
43298;BME280;28892;55.640;37.532;2024-03-17T10:39:01;98722.75;;;6.89;51.78
43298;BME280;28892;55.640;37.532;2024-03-17T10:41:27;98729.72;;;6.65;52.02
43298;BME280;28892;55.640;37.532;2024-03-17T10:43:56;98720.00;;;6.57;51.89
43298;BME280;28892;55.640;37.532;2024-03-17T10:46:45;98719.56;;;6.37;52.84
43298;BME280;28892;55.640;37.532;2024-03-17T10:49:20;98718.13;;;6.01;53.50
43298;BME280;28892;55.640;37.532;2024-03-17T10:52:05;98715.13;;;6.29;53.14
43298;BME280;28892;55.640;37.532;2024-03-17T10:54:39;98708.81;;;6.64;52.21
43298;BME280;28892;55.640;37.532;2024-03-17T11:00:26;98718.66;;;6.70;51.87
43298;BME280;28892;55.640;37.532;2024-03-17T11:03:14;98724.34;;;6.17;52.84
43298;BME280;28892;55.640;37.532;2024-03-17T11:05:48;98704.75;;;5.86;54.06
43298;BME280;28892;55.640;37.532;2024-03-17T11:08:20;98709.00;;;5.79;54.96
43298;BME280;28892;55.640;37.532;2024-03-17T11:20:39;98714.56;;;5.43;56.04
43298;BME280;28892;55.640;37.532;2024-03-17T11:23:05;98720.38;;;5.80;55.39
43298;BME280;28892;55.640;37.532;2024-03-17T11:25:40;98723.97;;;5.62;55.29
43298;BME280;28892;55.640;37.532;2024-03-17T11:28:07;98708.06;;;5.80;55.35
43298;BME280;28892;55.640;37.532;2024-03-17T11:38:58;98708.19;;;5.95;54.83
43298;BME280;28892;55.640;37.532;2024-03-17T11:41:32;98705.75;;;5.01;57.25
43298;BME280;28892;55.640;37.532;2024-03-17T11:47:17;98703.97;;;6.11;54.35
43298;BME280;28892;55.640;37.532;2024-03-17T11:49:46;98703.09;;;5.77;55.27
43298;BME280;28892;55.640;37.532;2024-03-17T11:52:12;98695.03;;;5.95;54.72
43298;BME280;28892;55.640;37.532;2024-03-17T11:54:53;98691.41;;;5.55;55.28
43298;BME280;28892;55.640;37.532;2024-03-17T11:57:45;98690.94;;;5.59;55.84
43298;BME280;28892;55.640;37.532;2024-03-17T12:00:24;98705.22;;;5.57;55.99
43298;BME280;28892;55.640;37.532;2024-03-17T12:02:52;98692.34;;;5.21;56.84
43298;BME280;28892;55.640;37.532;2024-03-17T12:05:54;98696.28;;;5.25;56.87
43298;BME280;28892;55.640;37.532;2024-03-17T12:08:48;98705.25;;;5.98;55.10
43298;BME280;28892;55.640;37.532;2024-03-17T12:11:30;98697.84;;;6.27;54.41
43298;BME280;28892;55.640;37.532;2024-03-17T12:14:18;98698.66;;;5.53;56.35
43298;BME280;28892;55.640;37.532;2024-03-17T12:16:53;98696.34;;;5.83;55.19
43298;BME280;28892;55.640;37.532;2024-03-17T12:19:41;98702.63;;;6.32;54.24
43298;BME280;28892;55.640;37.532;2024-03-17T12:22:48;98709.69;;;5.90;54.80
43298;BME280;28892;55.640;37.532;2024-03-17T12:25:34;98702.63;;;5.90;55.37
43298;BME280;28892;55.640;37.532;2024-03-17T12:28:40;98697.53;;;5.80;55.63
43298;BME280;28892;55.640;37.532;2024-03-17T12:31:24;98696.22;;;6.09;54.99
43298;BME280;28892;55.640;37.532;2024-03-17T12:34:20;98689.28;;;5.75;55.96
43298;BME280;28892;55.640;37.532;2024-03-17T12:40:20;98682.56;;;5.64;56.29
43298;BME280;28892;55.640;37.532;2024-03-17T12:42:47;98683.88;;;6.10;54.93
43298;BME280;28892;55.640;37.532;2024-03-17T12:45:24;98694.56;;;5.83;55.40
43298;BME280;28892;55.640;37.532;2024-03-17T12:48:11;98690.41;;;5.48;56.82
43298;BME280;28892;55.640;37.532;2024-03-17T12:51:01;98685.31;;;4.86;57.42
43298;BME280;28892;55.640;37.532;2024-03-17T12:53:33;98678.88;;;5.32;56.22
43298;BME280;28892;55.640;37.532;2024-03-17T12:56:29;98684.06;;;5.07;56.83
43298;BME280;28892;55.640;37.532;2024-03-17T12:59:56;98676.75;;;5.44;56.75
43298;BME280;28892;55.640;37.532;2024-03-17T13:02:37;98677.25;;;5.31;56.29
43298;BME280;28892;55.640;37.532;2024-03-17T13:06:05;98671.47;;;5.27;56.17
43298;BME280;28892;55.640;37.532;2024-03-17T13:08:36;98676.66;;;5.02;56.66
43298;BME280;28892;55.640;37.532;2024-03-17T13:15:12;98671.16;;;5.30;56.25
43298;BME280;28892;55.640;37.532;2024-03-17T13:17:42;98666.59;;;5.49;55.88
43298;BME280;28892;55.640;37.532;2024-03-17T13:20:19;98669.72;;;5.53;55.44
43298;BME280;28892;55.640;37.532;2024-03-17T13:22:45;98661.97;;;5.51;55.60
43298;BME280;28892;55.640;37.532;2024-03-17T13:36:53;98658.50;;;5.34;56.14
43298;BME280;28892;55.640;37.532;2024-03-17T13:39:28;98655.66;;;5.11;56.76
43298;BME280;28892;55.640;37.532;2024-03-17T13:41:56;98641.72;;;5.27;55.79
43298;BME280;28892;55.640;37.532;2024-03-17T13:44:38;98638.16;;;5.53;55.72
43298;BME280;28892;55.640;37.532;2024-03-17T13:47:09;98640.59;;;5.38;55.80
43298;BME280;28892;55.640;37.532;2024-03-17T13:49:39;98634.50;;;5.45;55.74
43298;BME280;28892;55.640;37.532;2024-03-17T13:52:08;98639.41;;;5.40;55.72
43298;BME280;28892;55.640;37.532;2024-03-17T13:54:34;98636.81;;;5.49;55.63
43298;BME280;28892;55.640;37.532;2024-03-17T13:57:03;98627.44;;;5.54;55.16
43298;BME280;28892;55.640;37.532;2024-03-17T13:59:34;98625.94;;;5.35;55.52
43298;BME280;28892;55.640;37.532;2024-03-17T14:02:37;98634.16;;;5.40;55.86
43298;BME280;28892;55.640;37.532;2024-03-17T14:05:45;98633.34;;;5.40;55.27
43298;BME280;28892;55.640;37.532;2024-03-17T14:20:41;98634.63;;;5.19;55.68
43298;BME280;28892;55.640;37.532;2024-03-17T14:23:13;98633.81;;;5.27;56.00
43298;BME280;28892;55.640;37.532;2024-03-17T14:25:39;98628.06;;;5.23;55.74
43298;BME280;28892;55.640;37.532;2024-03-17T14:28:07;98629.25;;;5.45;55.31
43298;BME280;28892;55.640;37.532;2024-03-17T14:30:33;98628.94;;;5.65;54.83
43298;BME280;28892;55.640;37.532;2024-03-17T14:32:59;98628.25;;;5.88;54.54
43298;BME280;28892;55.640;37.532;2024-03-17T14:35:32;98628.41;;;5.86;54.50